createdAt,value
2023-03-26T00:00:25.405Z,0.7
2023-03-26T00:05:31.544Z,0.9
2023-03-26T00:10:37.686Z,0.9
2023-03-26T00:15:43.798Z,1.5
2023-03-26T00:20:49.950Z,1.2
2023-03-26T00:25:56.481Z,1.3
2023-03-26T00:31:02.593Z,1.2
2023-03-26T00:36:08.390Z,1.2
2023-03-26T00:41:14.505Z,1.2
2023-03-26T00:46:20.627Z,1.1
2023-03-26T00:51:26.778Z,1.2
2023-03-26T00:56:32.936Z,1.2
2023-03-26T01:06:45.379Z,1.2
2023-03-26T01:11:51.405Z,1.1
2023-03-26T01:16:57.639Z,1.1
2023-03-26T01:22:03.729Z,1
2023-03-26T01:27:09.745Z,1.1
2023-03-26T01:32:15.915Z,1.4
2023-03-26T01:37:22.061Z,1.4
2023-03-26T01:42:28.154Z,1.2
2023-03-26T01:47:34.317Z,1.2
2023-03-26T01:52:40.470Z,1.2
2023-03-26T01:57:46.609Z,1
2023-03-26T02:02:52.803Z,1
2023-03-26T02:07:59.033Z,0.8
2023-03-26T02:13:05.020Z,0.8
2023-03-26T02:18:11.201Z,0.8
2023-03-26T02:23:17.292Z,0.9
2023-03-26T02:28:23.436Z,0.9
2023-03-26T02:33:29.604Z,1.1
2023-03-26T02:38:35.756Z,1.1
2023-03-26T02:43:41.851Z,1.1
2023-03-26T02:48:47.972Z,1.1
2023-03-26T02:53:54.122Z,1
2023-03-26T02:59:00.303Z,1
2023-03-26T03:04:06.397Z,1
2023-03-26T03:09:12.565Z,1.1
2023-03-26T03:14:18.690Z,1
2023-03-26T03:19:24.950Z,1.2
2023-03-26T03:24:30.998Z,1.2
2023-03-26T03:29:37.153Z,1.3
2023-03-26T03:34:43.298Z,1.3
2023-03-26T03:39:49.439Z,1
2023-03-26T03:44:55.683Z,0.8
2023-03-26T03:50:01.661Z,0.8
2023-03-26T03:55:07.823Z,0.7
2023-03-26T04:00:13.942Z,0.8
2023-03-26T04:05:20.113Z,0.9
2023-03-26T04:10:26.252Z,1
2023-03-26T04:15:32.434Z,1.1
2023-03-26T04:20:38.804Z,1
2023-03-26T04:25:44.714Z,1
2023-03-26T04:30:50.917Z,0.9
2023-03-26T04:35:57.174Z,1
2023-03-26T04:41:04.514Z,0.9
2023-03-26T04:46:09.421Z,1
2023-03-26T04:51:15.354Z,1
2023-03-26T04:56:21.572Z,1.1
2023-03-26T05:01:27.670Z,1
2023-03-26T05:06:33.826Z,1
2023-03-26T05:11:39.937Z,1.2
2023-03-26T05:16:46.090Z,1.1
2023-03-26T05:21:52.191Z,1.1
2023-03-26T05:26:58.364Z,1.1
2023-03-26T05:32:04.577Z,1.1
2023-03-26T05:37:10.624Z,1
2023-03-26T05:42:16.749Z,0.7
2023-03-26T05:47:23.033Z,0.6
2023-03-26T05:52:29.063Z,0.5
2023-03-26T05:57:35.225Z,0.5
2023-03-26T06:02:41.336Z,0.5
2023-03-26T06:07:47.440Z,0.4
2023-03-26T06:12:53.636Z,0.4
2023-03-26T06:17:59.838Z,0.3
2023-03-26T06:23:05.875Z,0.3
2023-03-26T06:28:12.088Z,0.4
2023-03-26T06:33:18.173Z,0.7
2023-03-26T06:38:24.325Z,0.9
2023-03-26T06:43:30.650Z,0.5
2023-03-26T06:48:36.708Z,0.3
2023-03-26T06:53:42.768Z,0.9
2023-03-26T06:58:48.943Z,1.5
2023-03-26T07:03:55.277Z,1.2
2023-03-26T07:09:11.501Z,0.8
2023-03-26T07:14:17.648Z,0.6
2023-03-26T07:19:23.825Z,0.3
2023-03-26T07:24:29.973Z,0.3
2023-03-26T07:29:36.034Z,0.1
2023-03-26T07:34:42.194Z,0
2023-03-26T07:39:48.421Z,0.1
2023-03-26T07:44:54.451Z,0.1
2023-03-26T07:50:00.768Z,0.2
2023-03-26T07:55:06.734Z,0.3
2023-03-26T08:00:12.818Z,0.4
2023-03-26T08:07:06.699Z,0.6
2023-03-26T08:13:45.019Z,0.4
2023-03-26T08:16:08.504Z,0.3
2023-03-26T08:22:11.020Z,0.4
2023-03-26T08:26:18.458Z,0.6
2023-03-26T08:32:57.805Z,0.7
2023-03-26T08:37:38.433Z,0.7
2023-03-26T08:41:17.084Z,0.6
2023-03-26T08:48:02.893Z,0.6
2023-03-26T08:51:14.237Z,0.7
2023-03-26T08:56:20.340Z,0.8
2023-03-26T09:01:26.507Z,0.5
2023-03-26T09:06:32.786Z,0.5
2023-03-26T09:11:38.770Z,0.3
2023-03-26T09:16:44.950Z,0.4
2023-03-26T09:21:51.044Z,0.7
2023-03-26T09:26:57.183Z,0.7
2023-03-26T09:32:03.334Z,1.4
2023-03-26T09:37:09.480Z,1.8
2023-03-26T09:42:15.606Z,1.8
2023-03-26T09:47:21.900Z,2
2023-03-26T09:52:27.913Z,1.5
2023-03-26T09:57:34.010Z,1.7
2023-03-26T10:02:46.174Z,1.2
2023-03-26T10:07:46.346Z,0.6
2023-03-26T10:12:54.674Z,0.6
2023-03-26T10:17:58.603Z,1
2023-03-26T10:23:04.767Z,1.1
2023-03-26T10:28:10.888Z,1
2023-03-26T10:33:17.030Z,1.3
2023-03-26T10:43:29.280Z,1.2
2023-03-26T10:48:35.455Z,1
2023-03-26T10:53:41.803Z,0.4
2023-03-26T10:58:48.893Z,0.5
2023-03-26T11:03:53.899Z,0.3
2023-03-26T11:09:00.138Z,0
2023-03-26T11:14:06.248Z,0.3
2023-03-26T11:19:12.282Z,0.5
2023-03-26T11:24:18.422Z,1.1
2023-03-26T11:29:31.945Z,2.2
2023-03-26T11:34:30.861Z,2.8
2023-03-26T11:39:36.857Z,3
2023-03-26T11:44:43.016Z,3.2
2023-03-26T11:49:49.097Z,3.1
2023-03-26T11:54:55.250Z,3.1
2023-03-26T12:00:01.421Z,3.1
2023-03-26T12:05:07.521Z,3.5
2023-03-26T12:10:15.556Z,3.7
2023-03-26T12:15:20.023Z,3.5
2023-03-26T12:20:25.946Z,3.3
2023-03-26T12:25:32.179Z,3.7
2023-03-26T12:30:38.355Z,4.2
2023-03-26T12:35:44.421Z,4.5
2023-03-26T12:40:50.667Z,4.2
2023-03-26T12:46:03.674Z,4.5
2023-03-26T12:51:03.024Z,4.7
2023-03-26T12:56:08.916Z,5.1
2023-03-26T13:01:15.082Z,4.8
2023-03-26T13:06:21.237Z,5.2
2023-03-26T13:11:27.358Z,5.8
2023-03-26T13:16:33.518Z,5.2
2023-03-26T13:21:39.646Z,5.5
2023-03-26T13:26:45.783Z,5.7
2023-03-26T13:31:51.916Z,5.2
2023-03-26T13:36:58.094Z,4.7
2023-03-26T13:42:04.339Z,4.8
2023-03-26T13:47:10.331Z,4.6
2023-03-26T13:52:16.500Z,3.2
2023-03-26T13:57:22.689Z,2.4
2023-03-26T14:02:28.852Z,2
2023-03-26T14:07:34.899Z,1.1
2023-03-26T14:12:41.243Z,0.6
2023-03-26T14:17:47.243Z,0.1
2023-03-26T14:22:53.323Z,0
2023-03-26T14:27:59.452Z,-0.1
2023-03-26T14:33:05.628Z,-0.2
2023-03-26T14:38:11.786Z,0
2023-03-26T14:43:17.886Z,-0.2
2023-03-26T14:48:24.044Z,-0.6
2023-03-26T14:53:30.204Z,-0.5
2023-03-26T14:58:36.504Z,0
2023-03-26T15:03:42.596Z,-0.1
2023-03-26T15:08:48.578Z,-0.2
2023-03-26T15:13:54.764Z,-0.1
2023-03-26T15:19:00.904Z,-0.1
2023-03-26T15:24:07.030Z,-0.2
2023-03-26T15:29:13.175Z,0.2
2023-03-26T15:34:19.283Z,0.9
2023-03-26T15:39:25.462Z,1.2
2023-03-26T15:49:37.737Z,1
2023-03-26T15:54:43.872Z,1.4
2023-03-26T15:59:50.026Z,1.7
2023-03-26T16:04:56.122Z,1.6
2023-03-26T16:10:02.314Z,1.6
2023-03-26T16:15:08.399Z,1.3
2023-03-26T16:20:14.554Z,1
2023-03-26T16:25:26.681Z,1.1
2023-03-26T16:30:26.851Z,0.8
2023-03-26T16:35:33.015Z,0.8
2023-03-26T16:40:39.154Z,0.5
2023-03-26T16:45:45.259Z,0.6
2023-03-26T16:50:51.387Z,0.5
2023-03-26T16:55:57.530Z,0.2
2023-03-26T17:01:03.702Z,0.3
2023-03-26T17:06:09.850Z,0.4
2023-03-26T17:11:15.964Z,0
2023-03-26T17:16:22.110Z,-0.2
2023-03-26T17:21:28.217Z,-0.5
2023-03-26T17:26:34.377Z,-1.1
2023-03-26T17:31:40.524Z,-1.2
2023-03-26T17:36:46.658Z,-1.4
2023-03-26T17:41:52.761Z,-1.4
2023-03-26T17:46:58.949Z,-1.2
2023-03-26T17:52:05.091Z,-0.9
2023-03-26T17:57:11.423Z,-1
2023-03-26T18:02:17.384Z,-1.1
2023-03-26T18:07:23.492Z,-1.3
2023-03-26T18:12:29.691Z,-1.3
2023-03-26T18:17:35.867Z,-1.2
2023-03-26T18:22:42.000Z,-1.2
2023-03-26T18:27:48.291Z,-1.2
2023-03-26T18:32:54.238Z,-1.3
2023-03-26T18:38:00.344Z,-1.5
2023-03-26T18:43:06.474Z,-1.5
2023-03-26T18:48:12.630Z,-1.9
2023-03-26T18:53:18.768Z,-1.9
2023-03-26T18:58:24.877Z,-1.9
2023-03-26T19:03:31.114Z,-1.8
2023-03-26T19:08:37.155Z,-1.9
2023-03-26T19:13:43.310Z,-1.7
2023-03-26T19:18:49.447Z,-1.5
2023-03-26T19:23:55.618Z,-1.6
2023-03-26T19:29:01.947Z,-1.8
2023-03-26T19:34:07.881Z,-1.9
2023-03-26T19:39:19.423Z,-1.9
2023-03-26T19:44:20.147Z,-1.9
2023-03-26T19:49:27.330Z,-1.8
2023-03-26T19:54:32.446Z,-1.8
2023-03-26T19:59:38.602Z,-1.8
2023-03-26T20:04:44.761Z,-1.8
2023-03-26T20:09:52.185Z,-1.8
2023-03-26T20:14:56.971Z,-1.8
2023-03-26T20:20:03.149Z,-1.9
2023-03-26T20:25:09.286Z,-1.9
2023-03-26T20:30:16.491Z,-1.9
2023-03-26T20:35:35.726Z,-1.9
2023-03-26T20:40:27.816Z,-1.8
2023-03-26T20:45:33.861Z,-1.8
2023-03-26T20:50:48.459Z,-1.7
2023-03-26T20:55:46.124Z,-1.5
2023-03-26T21:00:52.300Z,-1.4
2023-03-26T21:05:58.395Z,-1.4
2023-03-26T21:11:04.553Z,-1.3
2023-03-26T21:16:10.702Z,-1.3
2023-03-26T21:21:20.949Z,-1.4
2023-03-26T21:26:22.963Z,-1.4
2023-03-26T21:31:29.150Z,-1.4
2023-03-26T21:36:35.445Z,-1.5
2023-03-26T21:41:41.418Z,-1.4
2023-03-26T21:46:47.640Z,-1.5
2023-03-26T21:51:53.667Z,-1.4
2023-03-26T21:56:59.816Z,-1.4
2023-03-26T22:02:05.933Z,-1.4
2023-03-26T22:07:12.127Z,-1.3
2023-03-26T22:12:18.202Z,-1.6
2023-03-26T22:17:24.399Z,-1.8
2023-03-26T22:22:30.515Z,-1.7
2023-03-26T22:27:43.924Z,-1.6
2023-03-26T22:32:43.886Z,-1.6
2023-03-26T22:37:48.951Z,-1.6
2023-03-26T22:42:55.372Z,-1.7
2023-03-26T22:48:03.280Z,-1.7
2023-03-26T22:53:07.354Z,-1.7
2023-03-26T22:58:13.465Z,-1.7
2023-03-26T23:03:19.687Z,-1.6
2023-03-26T23:08:25.752Z,-1.5
2023-03-26T23:13:31.939Z,-1.6
2023-03-26T23:18:38.099Z,-1.8
2023-03-26T23:23:44.254Z,-1.9
2023-03-26T23:28:50.308Z,-1.9
2023-03-26T23:33:56.491Z,-1.7
2023-03-26T23:39:02.635Z,-1.8
2023-03-26T23:44:08.761Z,-1.7
2023-03-26T23:49:14.903Z,-1.9
2023-03-26T23:54:21.225Z,-1.9
2023-03-26T23:59:27.209Z,-2
